AV - LB | Pilotos de la V.A




 METAR AND TAF INFORMATION
METAR FOR VQPR
ADDS - METARS form results

(0333 UTC 19 May 2021)
Data provider http://aviationweather.gov/metar/data/
 
METAR text: VQPR 190300Z 33009KT 9999 SCT030 BKN070 20/11 Q1018
Conditions at: VQPR (PARO , BT) observed 0300 UTC 19 May 2021
Temperature: 20.0°C (68°F)
Dewpoint: 11.0°C (52°F) [RH = 56%]
Pressure (altimeter): 30.06 inches Hg (1018.0 mb)
Winds: from the NNW (330 degrees) at 10 MPH (9 knots; 4.6 m/s)
Visibility: 6 or more miles (10+ km)
Ceiling: 7000 feet AGL
Clouds: scattered clouds at 3000 feet AGL
broken clouds at 7000 feet AGL
Weather: no significant weather observed at this time

 AIRPORT MAP

 RUNWAY INFORMATION
Runway 15 Runway length 6445 ft Runway width 95 ft
Runway elevation 7355 ft Runway displaced threshold 0 ft Runway heading 151
Runway 33 Runway length 6445 ft Runway width 95 ft
Runway elevation 7328 ft Runway displaced threshold 0 ft Runway heading 331

 AIRPORT FREQUENCIES

 AIRPORT NEAR NAVIGATION AIDS
Type NDB Name Paro Frequency 410 KHZ
Type VOR Name Paro Frequency 108400 KHZ